Time;durP1;ratioP1;P1;durP2;ratioP2;P2;SDS_P1;SDS_P2;PMS_P1;PMS_P2;Temp;Humidity;BMP_temperature;BMP_pressure;BME280_temperature;BME280_humidity;BME280_pressure;Samples;Min_cycle;Max_cycle;Signal;HPM_P1;HPM_P2
2022/12/17 13:06:39;;;;;;;;;;;16.60;42.70;;;;;;5087774;28;19918;-87
2022/12/17 13:09:13;;;;;;;;;;;16.50;42.80;;;;;;5087688;28;19999;-87
2022/12/17 13:11:39;;;;;;;;;;;16.60;42.80;;;;;;5088812;28;19934;-87
2022/12/17 13:14:10;;;;;;;;;;;17.00;42.50;;;;;;5089247;28;19912;-87
2022/12/17 13:16:45;;;;;;;;;;;17.40;42.10;;;;;;5087304;28;19912;-87
2022/12/17 13:19:30;;;;;;;;;;;17.90;41.40;;;;;;5086115;28;20093;-87
2022/12/17 13:21:55;;;;;;;;;;;18.40;40.90;;;;;;5087882;28;20273;-87
2022/12/17 13:24:22;;;;;;;;;;;18.80;40.60;;;;;;5086936;28;19923;-87
2022/12/17 13:26:48;;;;;;;;;;;19.00;40.20;;;;;;5088038;28;20269;-87
2022/12/17 13:29:17;;;;;;;;;;;19.10;40.00;;;;;;5088525;28;19908;-87
2022/12/17 13:31:47;;;;;;;;;;;19.20;40.00;;;;;;5089343;28;19908;-87
2022/12/17 13:34:26;;;;;;;;;;;19.20;40.10;;;;;;5087228;28;19976;-87
2022/12/17 13:37:11;;;;;;;;;;;19.10;40.20;;;;;;5085941;28;20062;-87
2022/12/17 13:39:47;;;;;;;;;;;18.90;40.40;;;;;;5089180;28;19969;-87
2022/12/17 13:42:17;;;;;;;;;;;18.80;40.60;;;;;;5087731;28;19912;-86
2022/12/17 13:44:44;;;;;;;;;;;18.70;40.70;;;;;;5088333;28;19940;-87
2022/12/17 13:47:29;;;;;;;;;;;18.60;40.80;;;;;;5089164;28;20332;-87
2022/12/17 13:49:56;;;;;;;;;;;18.40;40.90;;;;;;5086693;28;19924;-87
2022/12/17 13:52:26;;;;;;;;;;;18.30;41.10;;;;;;5097719;28;19909;-87
2022/12/17 13:54:52;;;;;;;;;;;18.10;41.30;;;;;;5086880;28;19917;-87
2022/12/17 13:57:17;;;;;;;;;;;17.90;41.40;;;;;;5077811;28;19908;-87
2022/12/17 13:59:51;;;;;;;;;;;17.70;41.60;;;;;;5093503;28;20267;-87
2022/12/17 14:02:26;;;;;;;;;;;17.50;41.80;;;;;;5068203;28;19909;-87
2022/12/17 14:04:55;;;;;;;;;;;17.30;42.00;;;;;;5070839;28;19915;-87
2022/12/17 14:07:21;;;;;;;;;;;17.10;42.10;;;;;;5070742;28;20010;-87
2022/12/17 14:09:47;;;;;;;;;;;16.90;42.30;;;;;;5070597;28;20002;-87
2022/12/17 14:12:23;;;;;;;;;;;16.80;42.40;;;;;;5072334;28;19982;-87
2022/12/17 14:14:53;;;;;;;;;;;16.70;42.60;;;;;;5070755;28;20312;-87
2022/12/17 14:17:20;;;;;;;;;;;16.50;42.70;;;;;;5071416;28;19920;-87
2022/12/17 14:19:47;;;;;;;;;;;16.40;42.80;;;;;;5071667;28;19917;-87
2022/12/17 14:22:19;;;;;;;;;;;16.40;42.90;;;;;;5069890;28;20006;-87
2022/12/17 14:24:45;;;;;;;;;;;16.40;43.10;;;;;;5072094;28;20320;-87
2022/12/17 14:27:22;;;;;;;;;;;16.40;43.00;;;;;;5070794;28;19952;-87
2022/12/17 14:29:47;;;;;;;;;;;16.50;42.90;;;;;;5070827;28;19972;-87
2022/12/17 14:32:24;;;;;;;;;;;16.80;42.70;;;;;;5068882;28;19908;-87
2022/12/17 14:34:50;;;;;;;;;;;17.00;42.50;;;;;;5069303;28;19977;-87
2022/12/17 14:37:21;;;;;;;;;;;17.20;42.40;;;;;;5068526;28;19909;-87
2022/12/17 14:39:47;;;;;;;;;;;17.40;42.20;;;;;;5066718;28;19948;-87
2022/12/17 14:42:31;;;;;;;;;;;17.60;41.90;;;;;;5068595;28;20277;-87
2022/12/17 14:44:57;;;;;;;;;;;17.80;41.70;;;;;;5070413;28;19909;-87
2022/12/17 14:47:24;;;;;;;;;;;18.00;41.40;;;;;;5086815;28;20254;-87
2022/12/17 14:49:49;;;;;;;;;;;18.20;41.30;;;;;;5069034;28;20150;-87
2022/12/17 14:52:19;;;;;;;;;;;18.40;41.10;;;;;;5085707;28;19908;-87
2022/12/17 14:54:45;;;;;;;;;;;18.40;40.90;;;;;;5068161;28;19942;-87
2022/12/17 14:57:21;;;;;;;;;;;18.40;41.00;;;;;;5071596;28;19965;-87
2022/12/17 14:59:46;;;;;;;;;;;18.40;40.90;;;;;;5068082;28;19919;-87
2022/12/17 15:02:19;;;;;;;;;;;18.20;40.90;;;;;;5070607;28;20151;-87
2022/12/17 15:04:44;;;;;;;;;;;18.10;40.90;;;;;;5086514;28;20234;-87
2022/12/17 15:07:13;;;;;;;;;;;18.00;41.20;;;;;;5067202;28;20427;-87
2022/12/17 15:09:39;;;;;;;;;;;17.80;41.40;;;;;;5072417;28;19914;-87
2022/12/17 15:12:05;;;;;;;;;;;17.60;41.70;;;;;;5073098;28;19959;-87
2022/12/17 15:14:30;;;;;;;;;;;17.40;41.80;;;;;;5084234;28;20020;-87
2022/12/17 15:16:57;;;;;;;;;;;17.20;42.00;;;;;;5069769;28;19919;-87
2022/12/17 15:19:23;;;;;;;;;;;17.10;42.10;;;;;;5067141;28;19999;-87
2022/12/17 15:21:49;;;;;;;;;;;17.00;42.30;;;;;;5070286;28;19962;-87
2022/12/17 15:24:17;;;;;;;;;;;16.80;42.40;;;;;;5068208;28;19924;-87
2022/12/17 15:26:43;;;;;;;;;;;16.70;42.50;;;;;;5066985;28;19910;-87
2022/12/17 15:29:08;;;;;;;;;;;16.60;42.60;;;;;;5069065;28;19908;-87
2022/12/17 15:31:34;;;;;;;;;;;16.50;42.60;;;;;;5068415;28;19908;-88
2022/12/17 15:33:59;;;;;;;;;;;16.50;42.70;;;;;;5066960;28;19909;-88
2022/12/17 15:36:25;;;;;;;;;;;16.40;42.70;;;;;;5066328;28;20029;-89
2022/12/17 15:38:51;;;;;;;;;;;16.40;42.60;;;;;;5066916;28;19908;-88
2022/12/17 15:44:01;;;;;;;;;;;16.40;42.50;;;;;;5069267;28;19923;-86
2022/12/17 15:46:28;;;;;;;;;;;16.50;42.40;;;;;;5067112;28;19909;-86
2022/12/17 15:48:55;;;;;;;;;;;16.70;42.20;;;;;;5065385;28;20298;-86
2022/12/17 15:51:22;;;;;;;;;;;17.00;41.90;;;;;;5068570;28;19916;-86
2022/12/17 15:53:48;;;;;;;;;;;17.20;41.50;;;;;;5069936;28;19908;-85
2022/12/17 15:56:17;;;;;;;;;;;17.50;41.10;;;;;;5069926;28;19912;-85
2022/12/17 15:58:42;;;;;;;;;;;17.90;40.70;;;;;;5069511;28;19916;-86
2022/12/17 16:01:08;;;;;;;;;;;18.10;40.40;;;;;;5070235;28;19909;-86
2022/12/17 16:03:34;;;;;;;;;;;18.20;40.40;;;;;;5069475;28;20310;-86
2022/12/17 16:06:00;;;;;;;;;;;18.20;40.40;;;;;;5067191;28;19923;-86
2022/12/17 16:08:25;;;;;;;;;;;18.10;40.30;;;;;;5067308;28;19908;-86
2022/12/17 16:10:51;;;;;;;;;;;18.10;40.40;;;;;;5084825;28;19977;-85
2022/12/17 16:13:25;;;;;;;;;;;17.90;40.60;;;;;;5094350;28;19960;-85
2022/12/17 16:15:57;;;;;;;;;;;17.80;40.70;;;;;;5093716;28;19912;-86
2022/12/17 16:18:24;;;;;;;;;;;17.70;40.90;;;;;;5092783;28;19920;-86
2022/12/17 16:20:49;;;;;;;;;;;17.60;41.10;;;;;;5095115;28;19908;-86
2022/12/17 16:23:15;;;;;;;;;;;17.50;41.30;;;;;;5094555;28;20229;-85
2022/12/17 16:25:41;;;;;;;;;;;17.40;41.40;;;;;;5094636;28;20001;-85
2022/12/17 16:28:07;;;;;;;;;;;17.20;41.60;;;;;;5093129;28;20319;-86
2022/12/17 16:30:32;;;;;;;;;;;17.10;41.60;;;;;;5093328;28;19915;-85
2022/12/17 16:32:58;;;;;;;;;;;17.00;41.80;;;;;;5094116;28;19919;-86
2022/12/17 16:35:24;;;;;;;;;;;16.90;41.90;;;;;;5093627;28;19913;-86
2022/12/17 16:37:49;;;;;;;;;;;16.70;42.10;;;;;;5093401;28;19912;-86
2022/12/17 16:40:15;;;;;;;;;;;16.60;42.10;;;;;;5075424;28;19959;-86
2022/12/17 16:42:40;;;;;;;;;;;16.50;42.40;;;;;;5080799;28;19923;-85
2022/12/17 16:45:06;;;;;;;;;;;16.30;42.50;;;;;;5085368;28;20578;-85
2022/12/17 16:47:32;;;;;;;;;;;16.20;42.70;;;;;;5093804;28;19912;-87
2022/12/17 16:49:58;;;;;;;;;;;16.00;42.90;;;;;;5080368;28;20205;-87
2022/12/17 16:52:23;;;;;;;;;;;15.90;43.00;;;;;;5093629;28;19985;-87
2022/12/17 16:54:49;;;;;;;;;;;15.70;43.10;;;;;;5092610;28;20448;-87
2022/12/17 16:57:16;;;;;;;;;;;15.60;43.30;;;;;;5092019;28;20117;-87
2022/12/17 16:59:41;;;;;;;;;;;15.50;43.40;;;;;;5079351;28;19920;-87
2022/12/17 17:02:14;;;;;;;;;;;15.50;43.50;;;;;;5074707;28;19951;-87
2022/12/17 17:04:39;;;;;;;;;;;15.40;43.40;;;;;;5082689;28;19931;-87
2022/12/17 17:07:05;;;;;;;;;;;15.50;43.40;;;;;;5078213;28;20446;-87
2022/12/17 17:09:31;;;;;;;;;;;15.80;43.10;;;;;;5082002;28;19912;-87
2022/12/17 17:12:00;;;;;;;;;;;16.40;42.40;;;;;;5079878;28;19919;-88
2022/12/17 17:14:26;;;;;;;;;;;17.00;41.90;;;;;;5073204;28;20217;-87
2022/12/17 17:16:51;;;;;;;;;;;17.30;41.50;;;;;;5082241;28;19942;-87
2022/12/17 17:19:18;;;;;;;;;;;17.50;41.50;;;;;;5073996;28;19923;-86
2022/12/17 17:21:47;;;;;;;;;;;17.50;41.40;;;;;;5074532;28;19912;-87
2022/12/17 17:24:16;;;;;;;;;;;17.60;41.40;;;;;;5089948;28;19916;-87
2022/12/17 17:26:41;;;;;;;;;;;17.60;41.40;;;;;;5099234;28;19927;-87
2022/12/17 17:29:07;;;;;;;;;;;17.70;41.40;;;;;;5097670;28;19908;-87
2022/12/17 17:31:33;;;;;;;;;;;17.80;41.40;;;;;;5090322;28;20511;-87
2022/12/17 17:34:06;;;;;;;;;;;17.90;41.30;;;;;;5087064;28;20289;-87
2022/12/17 17:36:32;;;;;;;;;;;17.90;41.20;;;;;;5078291;28;19912;-87
2022/12/17 17:38:58;;;;;;;;;;;17.90;41.20;;;;;;5094517;28;19920;-87
2022/12/17 17:41:33;;;;;;;;;;;17.90;41.20;;;;;;5092522;28;20395;-88
2022/12/17 17:44:03;;;;;;;;;;;17.80;41.30;;;;;;5095663;28;19908;-87
2022/12/17 17:46:29;;;;;;;;;;;17.60;41.40;;;;;;5078756;28;19919;-87
2022/12/17 17:48:56;;;;;;;;;;;17.50;41.60;;;;;;5094999;28;19951;-88
2022/12/17 17:51:22;;;;;;;;;;;17.30;41.70;;;;;;5096542;28;19920;-88
2022/12/17 17:53:49;;;;;;;;;;;17.20;41.80;;;;;;5100437;28;19923;-88
2022/12/17 17:56:17;;;;;;;;;;;17.10;42.10;;;;;;5096681;28;19912;-88
2022/12/17 17:58:50;;;;;;;;;;;16.90;42.20;;;;;;5094044;28;19920;-87
2022/12/17 18:01:17;;;;;;;;;;;16.70;42.30;;;;;;5095433;28;19912;-87
2022/12/17 18:03:43;;;;;;;;;;;16.50;42.50;;;;;;5092632;28;19923;-88
2022/12/17 18:06:10;;;;;;;;;;;16.40;42.70;;;;;;5101739;28;19911;-87
2022/12/17 18:08:36;;;;;;;;;;;16.30;42.90;;;;;;5091771;28;19920;-88
2022/12/17 18:11:03;;;;;;;;;;;16.10;43.00;;;;;;5093093;28;19912;-88
2022/12/17 18:16:15;;;;;;;;;;;15.80;43.30;;;;;;5092301;28;20354;-88
2022/12/17 18:18:40;;;;;;;;;;;15.70;43.40;;;;;;5084496;28;19919;-88
2022/12/17 18:21:10;;;;;;;;;;;15.60;43.50;;;;;;5095994;28;19912;-88
2022/12/17 18:23:36;;;;;;;;;;;15.60;43.60;;;;;;5095992;28;19920;-88
2022/12/17 18:26:08;;;;;;;;;;;15.50;43.60;;;;;;5096961;28;20085;-87
2022/12/17 18:28:34;;;;;;;;;;;15.50;43.60;;;;;;5097821;28;19908;-88
2022/12/17 18:31:07;;;;;;;;;;;15.60;43.60;;;;;;5097735;28;19908;-88
2022/12/17 18:33:33;;;;;;;;;;;15.90;43.30;;;;;;5096660;28;19922;-88
2022/12/17 18:35:59;;;;;;;;;;;16.30;42.80;;;;;;5097669;28;19912;-88
2022/12/17 18:38:24;;;;;;;;;;;16.60;42.40;;;;;;5092111;28;19923;-88
2022/12/17 18:40:50;;;;;;;;;;;16.90;42.20;;;;;;5094007;28;20135;-88
2022/12/17 18:43:22;;;;;;;;;;;17.10;42.10;;;;;;5092901;28;19900;-88
2022/12/17 18:45:48;;;;;;;;;;;17.40;42.10;;;;;;5114592;28;20197;-88
2022/12/17 18:48:14;;;;;;;;;;;17.60;41.90;;;;;;5106618;28;19916;-88
2022/12/17 18:50:39;;;;;;;;;;;17.80;41.70;;;;;;5096294;28;19965;-88
2022/12/17 18:53:07;;;;;;;;;;;17.90;41.60;;;;;;5092339;28;19952;-88
2022/12/17 18:55:35;;;;;;;;;;;18.00;41.50;;;;;;5075934;28;19916;-88
2022/12/17 18:58:00;;;;;;;;;;;18.00;41.50;;;;;;5105215;28;20292;-88
2022/12/17 19:00:26;;;;;;;;;;;18.00;41.50;;;;;;5097329;28;19962;-87
2022/12/17 19:02:52;;;;;;;;;;;17.80;41.50;;;;;;5094827;28;20000;-88
2022/12/17 19:05:17;;;;;;;;;;;17.80;41.60;;;;;;5092640;28;20269;-88
2022/12/17 19:07:43;;;;;;;;;;;17.70;42.00;;;;;;5093759;28;21632;-88
2022/12/17 19:10:08;;;;;;;;;;;17.60;41.70;;;;;;5093524;28;20270;-88
2022/12/17 19:12:34;;;;;;;;;;;17.50;41.80;;;;;;5096079;28;19908;-88
2022/12/17 19:15:00;;;;;;;;;;;17.30;42.00;;;;;;5094538;28;19942;-87
2022/12/17 19:17:26;;;;;;;;;;;17.20;42.10;;;;;;5095298;28;20464;-87
2022/12/17 19:19:51;;;;;;;;;;;17.00;42.20;;;;;;5095275;28;20248;-88
2022/12/17 19:22:19;;;;;;;;;;;16.90;42.30;;;;;;5097973;28;19965;-88
2022/12/17 19:24:45;;;;;;;;;;;16.70;42.40;;;;;;5100288;28;19944;-88
2022/12/17 19:27:11;;;;;;;;;;;16.60;42.60;;;;;;5076943;28;19943;-88
2022/12/17 19:29:37;;;;;;;;;;;16.40;42.70;;;;;;5104595;28;19976;-88
2022/12/17 19:32:03;;;;;;;;;;;16.30;42.90;;;;;;5113842;28;20003;-88
2022/12/17 19:34:28;;;;;;;;;;;16.10;43.00;;;;;;5095670;28;19970;-87
2022/12/17 19:36:54;;;;;;;;;;;16.00;43.20;;;;;;5090585;28;19916;-88
2022/12/17 19:39:20;;;;;;;;;;;15.90;43.20;;;;;;5081745;28;19928;-87
2022/12/17 19:41:49;;;;;;;;;;;15.80;43.40;;;;;;5096851;28;19913;-88
2022/12/17 19:44:21;;;;;;;;;;;15.70;43.50;;;;;;5088978;28;19912;-88
2022/12/17 19:46:47;;;;;;;;;;;15.60;43.50;;;;;;5094664;28;19943;-87
2022/12/17 19:49:14;;;;;;;;;;;15.60;43.60;;;;;;5093665;28;19965;-87
2022/12/17 19:51:42;;;;;;;;;;;15.60;43.50;;;;;;5093808;28;20493;-87
2022/12/17 19:54:11;;;;;;;;;;;15.80;43.30;;;;;;5095400;28;19981;-87
2022/12/17 19:56:37;;;;;;;;;;;16.10;42.90;;;;;;5100332;28;19924;-89
2022/12/17 19:59:05;;;;;;;;;;;16.50;42.40;;;;;;5099734;28;19919;-88
2022/12/17 20:01:32;;;;;;;;;;;16.80;41.90;;;;;;5093224;28;19912;-88
2022/12/17 20:03:58;;;;;;;;;;;17.00;42.00;;;;;;5095361;28;19947;-89
2022/12/17 20:06:30;;;;;;;;;;;17.10;41.80;;;;;;5095492;28;19952;-88
2022/12/17 20:08:59;;;;;;;;;;;17.20;41.70;;;;;;5094869;28;19924;-89
2022/12/17 20:11:34;;;;;;;;;;;17.40;41.50;;;;;;5090928;28;19912;-88
2022/12/17 20:14:04;;;;;;;;;;;17.60;41.40;;;;;;5087634;28;19986;-89
2022/12/17 20:16:46;;;;;;;;;;;17.70;41.10;;;;;;5090574;28;20468;-88
2022/12/17 20:19:12;;;;;;;;;;;17.80;41.00;;;;;;5102613;28;19912;-88
2022/12/17 20:21:38;;;;;;;;;;;17.80;41.00;;;;;;5095419;28;19966;-88
2022/12/17 20:24:04;;;;;;;;;;;17.80;41.00;;;;;;5095845;28;19915;-88
2022/12/17 20:26:30;;;;;;;;;;;17.70;41.00;;;;;;5095349;28;19916;-87
2022/12/17 20:28:56;;;;;;;;;;;17.60;41.10;;;;;;5096039;28;20107;-88
2022/12/17 20:31:22;;;;;;;;;;;17.50;41.20;;;;;;5095780;28;19908;-87
2022/12/17 20:33:47;;;;;;;;;;;17.30;41.30;;;;;;5094943;28;19920;-88
2022/12/17 20:36:14;;;;;;;;;;;17.20;41.40;;;;;;5094395;28;19977;-88
2022/12/17 20:38:41;;;;;;;;;;;17.10;41.80;;;;;;5093688;28;19939;-87
2022/12/17 20:41:14;;;;;;;;;;;16.90;41.90;;;;;;5092748;28;20253;-87
2022/12/17 20:43:39;;;;;;;;;;;16.70;41.90;;;;;;5078887;28;19940;-88
2022/12/17 20:46:06;;;;;;;;;;;16.50;42.10;;;;;;5094746;28;19950;-88
2022/12/17 20:48:31;;;;;;;;;;;16.30;42.20;;;;;;5094131;28;20367;-88
2022/12/17 20:51:03;;;;;;;;;;;16.20;42.40;;;;;;5093118;28;19908;-87
2022/12/17 20:53:28;;;;;;;;;;;16.00;42.60;;;;;;5092405;28;19912;-88
2022/12/17 20:56:05;;;;;;;;;;;15.90;42.70;;;;;;5093343;28;19969;-87
2022/12/17 20:58:36;;;;;;;;;;;15.80;42.80;;;;;;5095140;28;19920;-87
2022/12/17 21:01:09;;;;;;;;;;;15.70;42.90;;;;;;5095662;28;19931;-88
2022/12/17 21:03:35;;;;;;;;;;;15.60;42.90;;;;;;5098446;28;19958;-87
2022/12/17 21:06:07;;;;;;;;;;;15.60;43.00;;;;;;5077168;28;20393;-88
2022/12/17 21:08:32;;;;;;;;;;;15.60;42.90;;;;;;5094180;28;19918;-88
2022/12/17 21:10:58;;;;;;;;;;;15.80;42.70;;;;;;5097139;28;19908;-87
2022/12/17 21:13:30;;;;;;;;;;;16.30;42.10;;;;;;5094286;28;20010;-88
2022/12/17 21:16:01;;;;;;;;;;;16.80;41.60;;;;;;5094170;28;19916;-88
2022/12/17 21:18:28;;;;;;;;;;;17.00;41.30;;;;;;5095283;28;19943;-88
2022/12/17 21:20:58;;;;;;;;;;;17.10;41.20;;;;;;5091611;28;19943;-88
2022/12/17 21:23:24;;;;;;;;;;;17.20;41.10;;;;;;5091471;28;19974;-88
2022/12/17 21:26:01;;;;;;;;;;;17.20;41.00;;;;;;5093992;28;19957;-88
2022/12/17 21:28:26;;;;;;;;;;;17.30;40.90;;;;;;5092336;28;19916;-88
2022/12/17 21:30:52;;;;;;;;;;;17.50;40.80;;;;;;5093654;28;20166;-88
2022/12/17 21:33:18;;;;;;;;;;;17.60;40.60;;;;;;5091253;28;19916;-88
2022/12/17 21:35:43;;;;;;;;;;;17.70;40.50;;;;;;5091690;28;19924;-88
2022/12/17 21:38:09;;;;;;;;;;;17.80;40.40;;;;;;5091895;28;20168;-88
2022/12/17 21:40:35;;;;;;;;;;;17.80;40.40;;;;;;5090424;28;19943;-88
2022/12/17 21:43:01;;;;;;;;;;;17.80;40.30;;;;;;5093362;28;20049;-88
2022/12/17 21:45:26;;;;;;;;;;;17.70;40.30;;;;;;5094199;28;19919;-88
2022/12/17 21:47:52;;;;;;;;;;;17.60;40.30;;;;;;5093949;28;20267;-88
2022/12/17 21:50:17;;;;;;;;;;;17.50;40.40;;;;;;5093197;28;19908;-88
2022/12/17 21:52:43;;;;;;;;;;;17.40;40.50;;;;;;5093775;28;19908;-88
2022/12/17 21:55:09;;;;;;;;;;;17.30;40.60;;;;;;5092768;28;19912;-88
2022/12/17 21:57:34;;;;;;;;;;;17.10;40.70;;;;;;5093307;28;19920;-88
2022/12/17 22:00:00;;;;;;;;;;;17.00;40.80;;;;;;5092669;28;20008;-88
2022/12/17 22:02:27;;;;;;;;;;;16.80;41.00;;;;;;5092478;28;19908;-88
2022/12/17 22:04:53;;;;;;;;;;;16.60;41.20;;;;;;5093509;28;19908;-88
2022/12/17 22:07:18;;;;;;;;;;;16.40;41.30;;;;;;5093398;28;20172;-88
2022/12/17 22:09:44;;;;;;;;;;;16.20;41.50;;;;;;5092170;28;19947;-88
2022/12/17 22:14:53;;;;;;;;;;;15.90;41.80;;;;;;5094557;28;19919;-88
2022/12/17 22:17:19;;;;;;;;;;;15.70;42.00;;;;;;5094301;28;19909;-88
2022/12/17 22:19:45;;;;;;;;;;;15.60;42.20;;;;;;5093670;28;19908;-88
2022/12/17 22:22:10;;;;;;;;;;;15.50;42.30;;;;;;5093068;28;19908;-88
2022/12/17 22:24:36;;;;;;;;;;;15.40;42.30;;;;;;5092819;28;19909;-88
2022/12/17 22:27:01;;;;;;;;;;;15.30;42.50;;;;;;5092444;28;20025;-87
2022/12/17 22:34:55;;;;;;;;;;;15.20;42.50;;;;;;5091857;28;20328;-87
2022/12/17 22:37:21;;;;;;;;;;;15.20;42.60;;;;;;5090899;28;19908;-88
2022/12/17 22:39:47;;;;;;;;;;;15.20;42.50;;;;;;5091898;28;20075;-88
2022/12/17 22:44:56;;;;;;;;;;;15.20;42.50;;;;;;5091705;28;19919;-88
2022/12/17 22:47:23;;;;;;;;;;;15.10;42.40;;;;;;5092382;28;19908;-88
2022/12/17 22:49:49;;;;;;;;;;;15.20;42.50;;;;;;5092169;28;19973;-88
2022/12/17 22:52:14;;;;;;;;;;;15.20;42.40;;;;;;5092490;28;19916;-88
2022/12/17 22:54:40;;;;;;;;;;;15.20;42.50;;;;;;5092378;28;20195;-88
2022/12/17 22:57:09;;;;;;;;;;;15.20;42.50;;;;;;5092319;28;20055;-88
2022/12/17 22:59:34;;;;;;;;;;;15.10;42.40;;;;;;5092360;28;19908;-88
2022/12/17 23:02:00;;;;;;;;;;;15.10;42.40;;;;;;5092171;28;20197;-88
2022/12/17 23:04:25;;;;;;;;;;;15.10;42.30;;;;;;5092825;28;20151;-88
2022/12/17 23:06:51;;;;;;;;;;;15.10;42.40;;;;;;5093846;28;19970;-88
2022/12/17 23:09:18;;;;;;;;;;;15.10;42.40;;;;;;5093889;28;19947;-88
2022/12/17 23:11:44;;;;;;;;;;;15.10;42.40;;;;;;5091928;28;20175;-88
2022/12/17 23:14:09;;;;;;;;;;;15.10;42.40;;;;;;5091783;28;19912;-88
2022/12/17 23:16:36;;;;;;;;;;;15.00;42.30;;;;;;5091749;28;19912;-88
2022/12/17 23:19:03;;;;;;;;;;;15.00;42.30;;;;;;5093803;28;19908;-88
2022/12/17 23:21:29;;;;;;;;;;;14.90;42.40;;;;;;5092857;28;19916;-88
2022/12/17 23:23:55;;;;;;;;;;;14.90;42.40;;;;;;5094638;28;19919;-88
2022/12/17 23:26:22;;;;;;;;;;;14.90;42.40;;;;;;5093352;28;19915;-88
2022/12/17 23:28:51;;;;;;;;;;;14.90;42.40;;;;;;5093673;28;19908;-88
2022/12/17 23:31:18;;;;;;;;;;;14.90;42.40;;;;;;5094207;28;19912;-88
2022/12/17 23:33:43;;;;;;;;;;;14.80;42.40;;;;;;5092652;28;19995;-88
2022/12/17 23:36:13;;;;;;;;;;;14.80;42.40;;;;;;5092831;28;20019;-88
2022/12/17 23:38:39;;;;;;;;;;;14.80;42.40;;;;;;5092475;28;19908;-88
2022/12/17 23:41:06;;;;;;;;;;;14.80;42.40;;;;;;5092984;28;20106;-88
2022/12/17 23:43:32;;;;;;;;;;;14.80;42.40;;;;;;5094281;28;19908;-88
2022/12/17 23:45:58;;;;;;;;;;;14.70;42.40;;;;;;5094391;28;20351;-88
2022/12/17 23:48:24;;;;;;;;;;;14.70;42.50;;;;;;5093556;28;19995;-87
2022/12/17 23:50:49;;;;;;;;;;;14.70;42.50;;;;;;5093552;28;20015;-88
2022/12/17 23:53:15;;;;;;;;;;;14.70;42.60;;;;;;5093980;28;19915;-88
2022/12/17 23:55:40;;;;;;;;;;;14.70;42.60;;;;;;5093009;28;19912;-88
2022/12/17 23:58:06;;;;;;;;;;;14.60;42.60;;;;;;5093746;28;19993;-88
